Cove Spring, Texas
Current Conditions -  °F | °C
As of 8:35 PM on Wednesday 22 Oct 2014 (Local Time) from KJSO Reporting Station
Clear Clear  
Wind Chill: 67°   Ceiling: Unl
Heat Index: 67°   Visibility: 10mi
Dew Point: 54°   Wind: 3mph
Humidity: 62%   Direction: 70°ENE
Pressure: 30.14"   Gusts: NA
Location:  31.9649°N, 95.3036°W
Report Text: KJSO 230135Z AUTO 07003KT 10SM CLR 19/12 A3014 RMK AO2 T01950120
Loading
Personal Weather Stations






























Interactive Weather Map
Tropical Storm Tracking
New forecast layout! Learn more

10-Day Weather Forecast

Advertisements
Track Severe Weather on mobile